sensor_id;sensor_type;location;lat;lon;timestamp;temperature;humidity
45761;DHT22;31471;51.040;14.414;2022-11-14T00:00:07;7.10;99.90
45761;DHT22;31471;51.040;14.414;2022-11-14T00:02:53;7.20;99.90
45761;DHT22;31471;51.040;14.414;2022-11-14T00:05:39;7.30;99.90
45761;DHT22;31471;51.040;14.414;2022-11-14T00:08:23;7.20;99.90
45761;DHT22;31471;51.040;14.414;2022-11-14T00:11:10;7.20;99.90
45761;DHT22;31471;51.040;14.414;2022-11-14T00:13:55;7.30;99.90
45761;DHT22;31471;51.040;14.414;2022-11-14T00:16:39;7.30;99.90
45761;DHT22;31471;51.040;14.414;2022-11-14T00:19:23;7.30;99.90
45761;DHT22;31471;51.040;14.414;2022-11-14T00:22:07;7.20;99.90
45761;DHT22;31471;51.040;14.414;2022-11-14T00:24:51;7.30;99.90
45761;DHT22;31471;51.040;14.414;2022-11-14T00:27:35;7.30;99.90
45761;DHT22;31471;51.040;14.414;2022-11-14T00:30:19;7.30;99.90
45761;DHT22;31471;51.040;14.414;2022-11-14T00:33:03;7.30;99.90
45761;DHT22;31471;51.040;14.414;2022-11-14T00:35:52;7.30;99.90
45761;DHT22;31471;51.040;14.414;2022-11-14T00:38:36;7.30;99.90
45761;DHT22;31471;51.040;14.414;2022-11-14T00:41:21;7.30;99.90
45761;DHT22;31471;51.040;14.414;2022-11-14T00:44:05;7.30;99.90
45761;DHT22;31471;51.040;14.414;2022-11-14T00:46:49;7.30;99.90
45761;DHT22;31471;51.040;14.414;2022-11-14T00:49:33;7.30;99.90
45761;DHT22;31471;51.040;14.414;2022-11-14T00:52:18;7.30;99.90
45761;DHT22;31471;51.040;14.414;2022-11-14T00:55:03;7.30;99.90
45761;DHT22;31471;51.040;14.414;2022-11-14T00:57:47;7.30;99.90
45761;DHT22;31471;51.040;14.414;2022-11-14T01:00:31;7.40;99.90
45761;DHT22;31471;51.040;14.414;2022-11-14T01:03:15;7.40;99.90
45761;DHT22;31471;51.040;14.414;2022-11-14T01:06:04;7.40;99.90
45761;DHT22;31471;51.040;14.414;2022-11-14T01:08:49;7.40;99.90
45761;DHT22;31471;51.040;14.414;2022-11-14T01:11:34;7.40;99.90
45761;DHT22;31471;51.040;14.414;2022-11-14T01:14:18;7.50;99.90
45761;DHT22;31471;51.040;14.414;2022-11-14T01:17:02;7.40;99.90
45761;DHT22;31471;51.040;14.414;2022-11-14T01:19:46;7.40;99.90
45761;DHT22;31471;51.040;14.414;2022-11-14T01:22:30;7.40;99.90
45761;DHT22;31471;51.040;14.414;2022-11-14T01:25:14;7.40;99.90
45761;DHT22;31471;51.040;14.414;2022-11-14T01:27:58;7.40;99.90
45761;DHT22;31471;51.040;14.414;2022-11-14T01:30:43;7.40;99.90
45761;DHT22;31471;51.040;14.414;2022-11-14T01:33:27;7.40;99.90
45761;DHT22;31471;51.040;14.414;2022-11-14T01:36:11;7.40;99.90
45761;DHT22;31471;51.040;14.414;2022-11-14T01:38:55;7.40;99.90
45761;DHT22;31471;51.040;14.414;2022-11-14T01:41:39;7.30;99.90
45761;DHT22;31471;51.040;14.414;2022-11-14T01:44:48;7.30;99.90
45761;DHT22;31471;51.040;14.414;2022-11-14T01:47:33;7.30;99.90
45761;DHT22;31471;51.040;14.414;2022-11-14T01:50:18;7.30;99.90
45761;DHT22;31471;51.040;14.414;2022-11-14T01:53:02;7.20;99.90
45761;DHT22;31471;51.040;14.414;2022-11-14T01:55:46;7.20;99.90
45761;DHT22;31471;51.040;14.414;2022-11-14T01:58:33;7.20;99.90
45761;DHT22;31471;51.040;14.414;2022-11-14T02:01:18;7.20;99.90
45761;DHT22;31471;51.040;14.414;2022-11-14T02:04:05;7.10;99.90
45761;DHT22;31471;51.040;14.414;2022-11-14T02:06:53;7.10;99.90
45761;DHT22;31471;51.040;14.414;2022-11-14T02:09:41;7.10;99.90
45761;DHT22;31471;51.040;14.414;2022-11-14T02:12:26;7.10;99.90
45761;DHT22;31471;51.040;14.414;2022-11-14T02:15:11;7.10;99.90
45761;DHT22;31471;51.040;14.414;2022-11-14T02:17:55;7.10;99.90
45761;DHT22;31471;51.040;14.414;2022-11-14T02:20:41;7.00;99.90
45761;DHT22;31471;51.040;14.414;2022-11-14T02:23:31;6.90;99.90
45761;DHT22;31471;51.040;14.414;2022-11-14T02:26:20;6.80;99.90
45761;DHT22;31471;51.040;14.414;2022-11-14T02:29:05;6.90;99.90
45761;DHT22;31471;51.040;14.414;2022-11-14T02:31:50;6.90;99.90
45761;DHT22;31471;51.040;14.414;2022-11-14T02:34:34;6.90;99.90
45761;DHT22;31471;51.040;14.414;2022-11-14T02:37:18;6.80;99.90
45761;DHT22;31471;51.040;14.414;2022-11-14T02:40:02;6.90;99.90
45761;DHT22;31471;51.040;14.414;2022-11-14T02:42:47;6.90;99.90
45761;DHT22;31471;51.040;14.414;2022-11-14T02:45:31;7.00;99.90
45761;DHT22;31471;51.040;14.414;2022-11-14T02:48:15;7.00;99.90
45761;DHT22;31471;51.040;14.414;2022-11-14T02:50:59;7.00;99.90
45761;DHT22;31471;51.040;14.414;2022-11-14T02:53:43;7.00;99.90
45761;DHT22;31471;51.040;14.414;2022-11-14T02:56:27;7.00;99.90
45761;DHT22;31471;51.040;14.414;2022-11-14T02:59:11;7.00;99.90
45761;DHT22;31471;51.040;14.414;2022-11-14T03:01:55;7.00;99.90
45761;DHT22;31471;51.040;14.414;2022-11-14T03:04:39;7.20;99.90
45761;DHT22;31471;51.040;14.414;2022-11-14T03:07:23;7.20;99.90
45761;DHT22;31471;51.040;14.414;2022-11-14T03:10:08;7.20;99.90
45761;DHT22;31471;51.040;14.414;2022-11-14T03:12:54;7.30;99.90
45761;DHT22;31471;51.040;14.414;2022-11-14T03:15:38;7.40;99.90
45761;DHT22;31471;51.040;14.414;2022-11-14T03:18:22;7.40;99.90
45761;DHT22;31471;51.040;14.414;2022-11-14T03:21:12;7.40;99.90
45761;DHT22;31471;51.040;14.414;2022-11-14T03:23:56;7.60;99.90
45761;DHT22;31471;51.040;14.414;2022-11-14T03:26:40;7.60;99.90
45761;DHT22;31471;51.040;14.414;2022-11-14T03:29:25;7.60;99.90
45761;DHT22;31471;51.040;14.414;2022-11-14T03:32:09;7.80;99.90
45761;DHT22;31471;51.040;14.414;2022-11-14T03:34:53;7.80;99.90
45761;DHT22;31471;51.040;14.414;2022-11-14T03:37:37;7.70;99.90
45761;DHT22;31471;51.040;14.414;2022-11-14T03:40:21;7.80;99.90
45761;DHT22;31471;51.040;14.414;2022-11-14T03:43:05;7.70;99.90
45761;DHT22;31471;51.040;14.414;2022-11-14T03:45:49;7.80;99.90
45761;DHT22;31471;51.040;14.414;2022-11-14T03:48:33;7.80;99.90
45761;DHT22;31471;51.040;14.414;2022-11-14T03:51:17;7.80;99.90
45761;DHT22;31471;51.040;14.414;2022-11-14T03:54:01;7.80;99.90
45761;DHT22;31471;51.040;14.414;2022-11-14T03:56:45;7.80;99.90
45761;DHT22;31471;51.040;14.414;2022-11-14T03:59:29;7.80;99.90
45761;DHT22;31471;51.040;14.414;2022-11-14T04:02:13;7.80;99.90
45761;DHT22;31471;51.040;14.414;2022-11-14T04:04:58;7.80;99.90
45761;DHT22;31471;51.040;14.414;2022-11-14T04:07:41;7.70;99.90
45761;DHT22;31471;51.040;14.414;2022-11-14T04:10:25;7.80;99.90
45761;DHT22;31471;51.040;14.414;2022-11-14T04:13:10;7.70;99.90
45761;DHT22;31471;51.040;14.414;2022-11-14T04:15:55;7.70;99.90
45761;DHT22;31471;51.040;14.414;2022-11-14T04:18:40;7.90;99.90
45761;DHT22;31471;51.040;14.414;2022-11-14T04:21:24;7.90;99.90
45761;DHT22;31471;51.040;14.414;2022-11-14T04:24:08;7.90;99.90
45761;DHT22;31471;51.040;14.414;2022-11-14T04:26:52;7.90;99.90
45761;DHT22;31471;51.040;14.414;2022-11-14T04:29:36;7.80;99.90
45761;DHT22;31471;51.040;14.414;2022-11-14T04:32:20;7.70;99.90
45761;DHT22;31471;51.040;14.414;2022-11-14T04:35:04;7.70;99.90
45761;DHT22;31471;51.040;14.414;2022-11-14T04:37:49;7.70;99.90
45761;DHT22;31471;51.040;14.414;2022-11-14T04:40:33;7.70;99.90
45761;DHT22;31471;51.040;14.414;2022-11-14T04:43:18;7.70;99.90
45761;DHT22;31471;51.040;14.414;2022-11-14T04:46:03;7.70;99.90
45761;DHT22;31471;51.040;14.414;2022-11-14T04:48:47;7.60;99.90
45761;DHT22;31471;51.040;14.414;2022-11-14T04:51:31;7.60;99.90
45761;DHT22;31471;51.040;14.414;2022-11-14T04:54:14;7.50;99.90
45761;DHT22;31471;51.040;14.414;2022-11-14T04:56:59;7.60;99.90
45761;DHT22;31471;51.040;14.414;2022-11-14T04:59:43;7.50;99.90
45761;DHT22;31471;51.040;14.414;2022-11-14T05:02:30;7.50;99.90
45761;DHT22;31471;51.040;14.414;2022-11-14T05:05:14;7.60;99.90
45761;DHT22;31471;51.040;14.414;2022-11-14T05:07:59;7.50;99.90
45761;DHT22;31471;51.040;14.414;2022-11-14T05:10:44;7.50;99.90
45761;DHT22;31471;51.040;14.414;2022-11-14T05:13:29;7.50;99.90
45761;DHT22;31471;51.040;14.414;2022-11-14T05:16:13;7.50;99.90
45761;DHT22;31471;51.040;14.414;2022-11-14T05:18:57;7.40;99.90
45761;DHT22;31471;51.040;14.414;2022-11-14T05:21:41;7.50;99.90
45761;DHT22;31471;51.040;14.414;2022-11-14T05:24:25;7.40;99.90
45761;DHT22;31471;51.040;14.414;2022-11-14T05:27:11;7.40;99.90
45761;DHT22;31471;51.040;14.414;2022-11-14T05:29:55;7.50;99.90
45761;DHT22;31471;51.040;14.414;2022-11-14T05:32:39;7.50;99.90
45761;DHT22;31471;51.040;14.414;2022-11-14T05:35:23;7.50;99.90
45761;DHT22;31471;51.040;14.414;2022-11-14T05:38:07;7.40;99.90
45761;DHT22;31471;51.040;14.414;2022-11-14T05:40:51;7.50;99.90
45761;DHT22;31471;51.040;14.414;2022-11-14T05:43:35;7.40;99.90
45761;DHT22;31471;51.040;14.414;2022-11-14T05:46:20;7.40;99.90
45761;DHT22;31471;51.040;14.414;2022-11-14T05:49:04;7.30;99.90
45761;DHT22;31471;51.040;14.414;2022-11-14T05:51:48;7.30;99.90
45761;DHT22;31471;51.040;14.414;2022-11-14T05:54:32;7.30;99.90
45761;DHT22;31471;51.040;14.414;2022-11-14T05:57:16;7.40;99.90
45761;DHT22;31471;51.040;14.414;2022-11-14T06:00:00;7.50;99.90
45761;DHT22;31471;51.040;14.414;2022-11-14T06:02:44;7.40;99.90
45761;DHT22;31471;51.040;14.414;2022-11-14T06:05:29;7.30;99.90
45761;DHT22;31471;51.040;14.414;2022-11-14T06:08:13;7.40;99.90
45761;DHT22;31471;51.040;14.414;2022-11-14T06:11:05;7.40;99.90
45761;DHT22;31471;51.040;14.414;2022-11-14T06:13:50;7.40;99.90
45761;DHT22;31471;51.040;14.414;2022-11-14T06:16:34;7.40;99.90
45761;DHT22;31471;51.040;14.414;2022-11-14T06:19:18;7.40;99.90
45761;DHT22;31471;51.040;14.414;2022-11-14T06:22:02;7.40;99.90
45761;DHT22;31471;51.040;14.414;2022-11-14T06:24:46;7.40;99.90
45761;DHT22;31471;51.040;14.414;2022-11-14T06:27:30;7.40;99.90
45761;DHT22;31471;51.040;14.414;2022-11-14T06:30:14;7.40;99.90
45761;DHT22;31471;51.040;14.414;2022-11-14T06:32:58;7.40;99.90
45761;DHT22;31471;51.040;14.414;2022-11-14T06:35:43;7.30;99.90
45761;DHT22;31471;51.040;14.414;2022-11-14T06:38:29;7.30;99.90
45761;DHT22;31471;51.040;14.414;2022-11-14T06:41:16;7.30;99.90
45761;DHT22;31471;51.040;14.414;2022-11-14T06:44:01;7.30;99.90
45761;DHT22;31471;51.040;14.414;2022-11-14T06:46:45;7.30;99.90
45761;DHT22;31471;51.040;14.414;2022-11-14T06:49:29;7.20;99.90
45761;DHT22;31471;51.040;14.414;2022-11-14T06:52:13;7.30;99.90
45761;DHT22;31471;51.040;14.414;2022-11-14T06:54:57;7.30;99.90
45761;DHT22;31471;51.040;14.414;2022-11-14T06:57:41;7.30;99.90
45761;DHT22;31471;51.040;14.414;2022-11-14T07:00:25;7.30;99.90
45761;DHT22;31471;51.040;14.414;2022-11-14T07:03:09;7.20;99.90
45761;DHT22;31471;51.040;14.414;2022-11-14T07:05:57;7.20;99.90
45761;DHT22;31471;51.040;14.414;2022-11-14T07:08:41;7.30;99.90
45761;DHT22;31471;51.040;14.414;2022-11-14T07:11:27;7.30;99.90
45761;DHT22;31471;51.040;14.414;2022-11-14T07:14:12;7.30;99.90
45761;DHT22;31471;51.040;14.414;2022-11-14T07:16:57;7.30;99.90
45761;DHT22;31471;51.040;14.414;2022-11-14T07:19:41;7.30;99.90
45761;DHT22;31471;51.040;14.414;2022-11-14T07:22:25;7.30;99.90
45761;DHT22;31471;51.040;14.414;2022-11-14T07:25:09;7.30;99.90
45761;DHT22;31471;51.040;14.414;2022-11-14T07:27:56;7.40;99.90
45761;DHT22;31471;51.040;14.414;2022-11-14T07:30:40;7.40;99.90
45761;DHT22;31471;51.040;14.414;2022-11-14T07:33:24;7.40;99.90
45761;DHT22;31471;51.040;14.414;2022-11-14T07:36:09;7.50;99.90
45761;DHT22;31471;51.040;14.414;2022-11-14T07:38:54;7.50;99.90
45761;DHT22;31471;51.040;14.414;2022-11-14T07:41:38;7.60;99.90
45761;DHT22;31471;51.040;14.414;2022-11-14T07:44:23;7.60;99.90
45761;DHT22;31471;51.040;14.414;2022-11-14T07:47:07;7.60;99.90
45761;DHT22;31471;51.040;14.414;2022-11-14T07:49:52;7.60;99.90
45761;DHT22;31471;51.040;14.414;2022-11-14T07:52:36;7.70;99.90
45761;DHT22;31471;51.040;14.414;2022-11-14T07:55:20;7.70;99.90
45761;DHT22;31471;51.040;14.414;2022-11-14T07:58:04;7.70;99.90
45761;DHT22;31471;51.040;14.414;2022-11-14T08:00:48;7.80;99.90
45761;DHT22;31471;51.040;14.414;2022-11-14T08:03:33;7.80;99.90
45761;DHT22;31471;51.040;14.414;2022-11-14T08:06:17;7.90;99.90
45761;DHT22;31471;51.040;14.414;2022-11-14T08:09:01;7.90;99.90
45761;DHT22;31471;51.040;14.414;2022-11-14T08:11:46;8.00;99.90
45761;DHT22;31471;51.040;14.414;2022-11-14T08:14:33;8.00;99.90
45761;DHT22;31471;51.040;14.414;2022-11-14T08:17:18;8.00;99.90
45761;DHT22;31471;51.040;14.414;2022-11-14T08:20:04;8.10;99.90
45761;DHT22;31471;51.040;14.414;2022-11-14T08:22:48;8.10;99.90
45761;DHT22;31471;51.040;14.414;2022-11-14T08:25:32;8.10;99.90
45761;DHT22;31471;51.040;14.414;2022-11-14T08:28:16;8.20;99.90
45761;DHT22;31471;51.040;14.414;2022-11-14T08:31:02;8.20;99.90
45761;DHT22;31471;51.040;14.414;2022-11-14T08:33:47;8.20;99.90
45761;DHT22;31471;51.040;14.414;2022-11-14T08:36:33;8.30;99.90
45761;DHT22;31471;51.040;14.414;2022-11-14T08:39:17;8.30;99.90
45761;DHT22;31471;51.040;14.414;2022-11-14T08:42:01;8.30;99.90
45761;DHT22;31471;51.040;14.414;2022-11-14T08:44:45;8.40;99.90
45761;DHT22;31471;51.040;14.414;2022-11-14T08:47:29;8.50;99.90
45761;DHT22;31471;51.040;14.414;2022-11-14T08:50:13;8.50;99.90
45761;DHT22;31471;51.040;14.414;2022-11-14T08:52:58;8.50;99.90
45761;DHT22;31471;51.040;14.414;2022-11-14T08:55:46;8.60;99.90
45761;DHT22;31471;51.040;14.414;2022-11-14T08:58:31;8.70;99.90
45761;DHT22;31471;51.040;14.414;2022-11-14T09:01:15;8.80;99.90
45761;DHT22;31471;51.040;14.414;2022-11-14T09:04:00;8.80;99.90
45761;DHT22;31471;51.040;14.414;2022-11-14T09:06:44;8.90;99.90
45761;DHT22;31471;51.040;14.414;2022-11-14T09:09:29;8.90;99.90
45761;DHT22;31471;51.040;14.414;2022-11-14T09:12:13;9.00;99.90
45761;DHT22;31471;51.040;14.414;2022-11-14T09:14:57;9.00;99.90
45761;DHT22;31471;51.040;14.414;2022-11-14T09:17:41;9.00;99.90
45761;DHT22;31471;51.040;14.414;2022-11-14T09:20:25;9.10;99.90
45761;DHT22;31471;51.040;14.414;2022-11-14T09:23:10;9.10;99.90
45761;DHT22;31471;51.040;14.414;2022-11-14T09:25:54;9.20;99.90
45761;DHT22;31471;51.040;14.414;2022-11-14T09:28:40;9.20;99.90
45761;DHT22;31471;51.040;14.414;2022-11-14T09:31:24;9.20;99.90
45761;DHT22;31471;51.040;14.414;2022-11-14T09:34:08;9.30;99.90
45761;DHT22;31471;51.040;14.414;2022-11-14T09:36:52;9.40;99.90
45761;DHT22;31471;51.040;14.414;2022-11-14T09:39:36;9.40;99.90
45761;DHT22;31471;51.040;14.414;2022-11-14T09:45:22;9.50;99.90
45761;DHT22;31471;51.040;14.414;2022-11-14T09:48:12;9.60;99.90
45761;DHT22;31471;51.040;14.414;2022-11-14T09:51:06;9.60;99.90
45761;DHT22;31471;51.040;14.414;2022-11-14T09:54:17;9.60;99.90
45761;DHT22;31471;51.040;14.414;2022-11-14T09:57:12;9.60;99.90
45761;DHT22;31471;51.040;14.414;2022-11-14T09:59:57;9.70;99.90
45761;DHT22;31471;51.040;14.414;2022-11-14T10:06:09;9.80;99.90
45761;DHT22;31471;51.040;14.414;2022-11-14T10:09:02;9.90;99.90
45761;DHT22;31471;51.040;14.414;2022-11-14T10:11:54;9.90;99.90
45761;DHT22;31471;51.040;14.414;2022-11-14T10:18:12;10.00;99.90
45761;DHT22;31471;51.040;14.414;2022-11-14T10:27:05;10.10;99.90
45761;DHT22;31471;51.040;14.414;2022-11-14T10:30:20;10.00;99.90
45761;DHT22;31471;51.040;14.414;2022-11-14T10:33:45;10.10;99.90
45761;DHT22;31471;51.040;14.414;2022-11-14T10:37:10;10.10;99.90
45761;DHT22;31471;51.040;14.414;2022-11-14T10:40:20;10.20;99.90
45761;DHT22;31471;51.040;14.414;2022-11-14T10:43:25;10.20;99.90
45761;DHT22;31471;51.040;14.414;2022-11-14T10:46:25;10.20;99.90
45761;DHT22;31471;51.040;14.414;2022-11-14T10:49:22;10.30;99.90
45761;DHT22;31471;51.040;14.414;2022-11-14T10:52:12;10.30;99.90
45761;DHT22;31471;51.040;14.414;2022-11-14T10:54:59;10.30;99.90
45761;DHT22;31471;51.040;14.414;2022-11-14T10:57:46;10.40;99.90
45761;DHT22;31471;51.040;14.414;2022-11-14T11:00:31;10.30;99.90
45761;DHT22;31471;51.040;14.414;2022-11-14T11:03:15;10.30;99.90
45761;DHT22;31471;51.040;14.414;2022-11-14T11:05:59;10.30;99.90
45761;DHT22;31471;51.040;14.414;2022-11-14T11:08:43;10.40;99.90
45761;DHT22;31471;51.040;14.414;2022-11-14T11:11:56;10.40;99.90
45761;DHT22;31471;51.040;14.414;2022-11-14T11:14:41;10.40;99.90
45761;DHT22;31471;51.040;14.414;2022-11-14T11:17:26;10.30;99.90
45761;DHT22;31471;51.040;14.414;2022-11-14T11:26:14;10.40;99.90
45761;DHT22;31471;51.040;14.414;2022-11-14T11:31:56;10.40;99.90
45761;DHT22;31471;51.040;14.414;2022-11-14T11:34:41;10.40;99.90
45761;DHT22;31471;51.040;14.414;2022-11-14T11:37:50;10.50;99.90
45761;DHT22;31471;51.040;14.414;2022-11-14T11:40:32;10.60;99.90
45761;DHT22;31471;51.040;14.414;2022-11-14T11:46:21;10.60;99.90
45761;DHT22;31471;51.040;14.414;2022-11-14T11:49:17;10.60;99.90
45761;DHT22;31471;51.040;14.414;2022-11-14T11:52:09;10.70;99.90
45761;DHT22;31471;51.040;14.414;2022-11-14T11:55:24;10.80;99.90
45761;DHT22;31471;51.040;14.414;2022-11-14T12:00:53;10.90;99.90
45761;DHT22;31471;51.040;14.414;2022-11-14T12:03:41;10.80;99.90
45761;DHT22;31471;51.040;14.414;2022-11-14T12:06:28;10.80;99.90
45761;DHT22;31471;51.040;14.414;2022-11-14T12:09:26;10.80;99.90
45761;DHT22;31471;51.040;14.414;2022-11-14T12:12:20;10.80;99.90
45761;DHT22;31471;51.040;14.414;2022-11-14T12:15:28;10.80;99.90
45761;DHT22;31471;51.040;14.414;2022-11-14T12:30:52;10.90;99.90
45761;DHT22;31471;51.040;14.414;2022-11-14T12:33:43;10.90;99.90
45761;DHT22;31471;51.040;14.414;2022-11-14T12:36:32;10.80;99.90
45761;DHT22;31471;51.040;14.414;2022-11-14T12:39:24;10.80;99.90
45761;DHT22;31471;51.040;14.414;2022-11-14T12:42:11;10.80;99.90
45761;DHT22;31471;51.040;14.414;2022-11-14T12:44:59;10.60;99.90
45761;DHT22;31471;51.040;14.414;2022-11-14T12:54:45;10.60;99.90
45761;DHT22;31471;51.040;14.414;2022-11-14T12:57:40;10.50;99.90
45761;DHT22;31471;51.040;14.414;2022-11-14T13:07:11;10.50;99.90
45761;DHT22;31471;51.040;14.414;2022-11-14T13:10:12;10.40;99.90
45761;DHT22;31471;51.040;14.414;2022-11-14T13:16:25;10.40;99.90
45761;DHT22;31471;51.040;14.414;2022-11-14T13:19:28;10.40;99.90
45761;DHT22;31471;51.040;14.414;2022-11-14T13:22:40;10.40;99.90
45761;DHT22;31471;51.040;14.414;2022-11-14T13:25:25;10.30;99.90
45761;DHT22;31471;51.040;14.414;2022-11-14T13:28:48;10.30;99.90
45761;DHT22;31471;51.040;14.414;2022-11-14T13:37:42;10.30;99.90
45761;DHT22;31471;51.040;14.414;2022-11-14T13:40:39;10.20;99.90
45761;DHT22;31471;51.040;14.414;2022-11-14T13:43:55;10.20;99.90
45761;DHT22;31471;51.040;14.414;2022-11-14T13:47:12;10.20;99.90
45761;DHT22;31471;51.040;14.414;2022-11-14T13:52:47;10.20;99.90
45761;DHT22;31471;51.040;14.414;2022-11-14T13:58:35;10.10;99.90
45761;DHT22;31471;51.040;14.414;2022-11-14T14:13:26;10.00;99.90
45761;DHT22;31471;51.040;14.414;2022-11-14T14:31:37;9.90;99.90
45761;DHT22;31471;51.040;14.414;2022-11-14T14:34:32;9.90;99.90
45761;DHT22;31471;51.040;14.414;2022-11-14T14:37:23;9.80;99.90
45761;DHT22;31471;51.040;14.414;2022-11-14T14:40:23;9.70;99.90
45761;DHT22;31471;51.040;14.414;2022-11-14T14:43:20;9.70;99.90
45761;DHT22;31471;51.040;14.414;2022-11-14T14:46:05;9.60;99.90
45761;DHT22;31471;51.040;14.414;2022-11-14T14:48:50;9.60;99.90
45761;DHT22;31471;51.040;14.414;2022-11-14T14:51:35;9.50;99.90
45761;DHT22;31471;51.040;14.414;2022-11-14T14:54:23;9.50;99.90
45761;DHT22;31471;51.040;14.414;2022-11-14T14:57:16;9.40;99.90
45761;DHT22;31471;51.040;14.414;2022-11-14T15:00:15;9.40;99.90
45761;DHT22;31471;51.040;14.414;2022-11-14T15:02:59;9.30;99.90
45761;DHT22;31471;51.040;14.414;2022-11-14T15:05:43;9.30;99.90
45761;DHT22;31471;51.040;14.414;2022-11-14T15:08:29;9.20;99.90
45761;DHT22;31471;51.040;14.414;2022-11-14T15:11:14;9.20;99.90
45761;DHT22;31471;51.040;14.414;2022-11-14T15:14:00;9.10;99.90
45761;DHT22;31471;51.040;14.414;2022-11-14T15:16:45;9.10;99.90
45761;DHT22;31471;51.040;14.414;2022-11-14T15:19:41;9.10;99.90
45761;DHT22;31471;51.040;14.414;2022-11-14T15:22:26;9.00;99.90
45761;DHT22;31471;51.040;14.414;2022-11-14T15:27:56;8.80;99.90
45761;DHT22;31471;51.040;14.414;2022-11-14T15:30:56;8.80;99.90
45761;DHT22;31471;51.040;14.414;2022-11-14T15:33:41;8.70;99.90
45761;DHT22;31471;51.040;14.414;2022-11-14T15:36:25;8.70;99.90
45761;DHT22;31471;51.040;14.414;2022-11-14T15:39:26;8.70;99.90
45761;DHT22;31471;51.040;14.414;2022-11-14T15:42:34;8.60;99.90
45761;DHT22;31471;51.040;14.414;2022-11-14T15:48:12;8.60;99.90
45761;DHT22;31471;51.040;14.414;2022-11-14T15:50:58;8.60;99.90
45761;DHT22;31471;51.040;14.414;2022-11-14T15:53:47;8.50;99.90
45761;DHT22;31471;51.040;14.414;2022-11-14T15:56:32;8.50;99.90
45761;DHT22;31471;51.040;14.414;2022-11-14T15:59:16;8.50;99.90
45761;DHT22;31471;51.040;14.414;2022-11-14T16:02:21;8.40;99.90
45761;DHT22;31471;51.040;14.414;2022-11-14T16:05:10;8.40;99.90
45761;DHT22;31471;51.040;14.414;2022-11-14T16:07:56;8.40;99.90
45761;DHT22;31471;51.040;14.414;2022-11-14T16:10:40;8.40;99.90
45761;DHT22;31471;51.040;14.414;2022-11-14T16:13:24;8.30;99.90
45761;DHT22;31471;51.040;14.414;2022-11-14T16:16:08;8.20;99.90
45761;DHT22;31471;51.040;14.414;2022-11-14T16:18:52;8.20;99.90
45761;DHT22;31471;51.040;14.414;2022-11-14T16:21:36;8.20;99.90
45761;DHT22;31471;51.040;14.414;2022-11-14T16:24:21;8.10;99.90
45761;DHT22;31471;51.040;14.414;2022-11-14T16:27:06;8.00;99.90
45761;DHT22;31471;51.040;14.414;2022-11-14T16:29:51;8.00;99.90
45761;DHT22;31471;51.040;14.414;2022-11-14T16:32:35;7.90;99.90
45761;DHT22;31471;51.040;14.414;2022-11-14T16:35:24;7.70;99.90
45761;DHT22;31471;51.040;14.414;2022-11-14T16:38:11;7.70;99.90
45761;DHT22;31471;51.040;14.414;2022-11-14T16:40:55;7.60;99.90
45761;DHT22;31471;51.040;14.414;2022-11-14T16:43:39;7.50;99.90
45761;DHT22;31471;51.040;14.414;2022-11-14T16:46:23;7.40;99.90
45761;DHT22;31471;51.040;14.414;2022-11-14T16:49:14;7.30;99.90
45761;DHT22;31471;51.040;14.414;2022-11-14T16:51:59;7.30;99.90
45761;DHT22;31471;51.040;14.414;2022-11-14T16:54:48;7.10;99.90
45761;DHT22;31471;51.040;14.414;2022-11-14T16:57:32;7.10;99.90
45761;DHT22;31471;51.040;14.414;2022-11-14T17:00:17;7.00;99.90
45761;DHT22;31471;51.040;14.414;2022-11-14T17:03:01;6.90;99.90
45761;DHT22;31471;51.040;14.414;2022-11-14T17:05:47;6.90;99.90
45761;DHT22;31471;51.040;14.414;2022-11-14T17:08:32;6.80;99.90
45761;DHT22;31471;51.040;14.414;2022-11-14T17:11:16;6.70;99.90
45761;DHT22;31471;51.040;14.414;2022-11-14T17:14:00;6.70;99.90
45761;DHT22;31471;51.040;14.414;2022-11-14T17:16:45;6.60;99.90
45761;DHT22;31471;51.040;14.414;2022-11-14T17:19:29;6.70;99.90
45761;DHT22;31471;51.040;14.414;2022-11-14T17:22:15;6.90;99.90
45761;DHT22;31471;51.040;14.414;2022-11-14T17:24:59;6.90;99.90
45761;DHT22;31471;51.040;14.414;2022-11-14T17:27:43;7.00;99.90
45761;DHT22;31471;51.040;14.414;2022-11-14T17:30:27;7.10;99.90
45761;DHT22;31471;51.040;14.414;2022-11-14T17:33:11;7.20;99.90
45761;DHT22;31471;51.040;14.414;2022-11-14T17:35:56;7.30;99.90
45761;DHT22;31471;51.040;14.414;2022-11-14T17:38:44;7.30;99.90
45761;DHT22;31471;51.040;14.414;2022-11-14T17:41:28;7.30;99.90
45761;DHT22;31471;51.040;14.414;2022-11-14T17:44:12;7.20;99.90
45761;DHT22;31471;51.040;14.414;2022-11-14T17:46:56;7.20;99.90
45761;DHT22;31471;51.040;14.414;2022-11-14T17:49:40;7.10;99.90
45761;DHT22;31471;51.040;14.414;2022-11-14T17:52:24;7.10;99.90
45761;DHT22;31471;51.040;14.414;2022-11-14T17:55:09;7.00;99.90
45761;DHT22;31471;51.040;14.414;2022-11-14T17:57:53;7.10;99.90
45761;DHT22;31471;51.040;14.414;2022-11-14T18:00:38;7.00;99.90
45761;DHT22;31471;51.040;14.414;2022-11-14T18:03:22;6.90;99.90
45761;DHT22;31471;51.040;14.414;2022-11-14T18:06:09;6.90;99.90
45761;DHT22;31471;51.040;14.414;2022-11-14T18:08:53;6.80;99.90
45761;DHT22;31471;51.040;14.414;2022-11-14T18:11:37;6.80;99.90
45761;DHT22;31471;51.040;14.414;2022-11-14T18:14:21;6.70;99.90
45761;DHT22;31471;51.040;14.414;2022-11-14T18:17:05;6.60;99.90
45761;DHT22;31471;51.040;14.414;2022-11-14T18:19:49;6.50;99.90
45761;DHT22;31471;51.040;14.414;2022-11-14T18:22:33;6.40;99.90
45761;DHT22;31471;51.040;14.414;2022-11-14T18:25:17;6.30;99.90
45761;DHT22;31471;51.040;14.414;2022-11-14T18:28:01;6.20;99.90
45761;DHT22;31471;51.040;14.414;2022-11-14T18:30:53;6.00;99.90
45761;DHT22;31471;51.040;14.414;2022-11-14T18:33:39;6.00;99.90
45761;DHT22;31471;51.040;14.414;2022-11-14T18:36:23;5.80;99.90
45761;DHT22;31471;51.040;14.414;2022-11-14T18:39:08;5.80;99.90
45761;DHT22;31471;51.040;14.414;2022-11-14T18:41:52;5.60;99.90
45761;DHT22;31471;51.040;14.414;2022-11-14T18:44:36;5.70;99.90
45761;DHT22;31471;51.040;14.414;2022-11-14T18:47:20;5.60;99.90
45761;DHT22;31471;51.040;14.414;2022-11-14T18:50:04;5.60;99.90
45761;DHT22;31471;51.040;14.414;2022-11-14T18:52:49;5.50;99.90
45761;DHT22;31471;51.040;14.414;2022-11-14T18:55:38;5.60;99.90
45761;DHT22;31471;51.040;14.414;2022-11-14T18:58:23;5.50;99.90
45761;DHT22;31471;51.040;14.414;2022-11-14T19:01:15;5.50;99.90
45761;DHT22;31471;51.040;14.414;2022-11-14T19:04:05;5.50;99.90
45761;DHT22;31471;51.040;14.414;2022-11-14T19:06:49;5.40;99.90
45761;DHT22;31471;51.040;14.414;2022-11-14T19:09:33;5.30;99.90
45761;DHT22;31471;51.040;14.414;2022-11-14T19:12:17;5.40;99.90
45761;DHT22;31471;51.040;14.414;2022-11-14T19:15:02;5.30;99.90